Report METAR

 

LIPB - Bolzano(Civ/It-A, Italy
Distance from station: NNE 37km
Dati ricevuti: 03/12/2022 15:50
Molto nuvoloso
Molto nuvoloso
 Vento da S
Vento: S 6 km/h
Temperatura: 7°C
P.to Rugiada: 4°C
Umidità: 81%
Barometro: 1018 hPa
Nuvole: Molto nuvoloso
Visibility: 10 km
Cloud details: Parz. nuvoloso 1372 m
Molto nuvoloso 2438 m
2022/12/03 14:50 LIPB 031450Z 19003KT 150V220 9999 SCT045 BKN080 07/04 Q1018
LIVR - Rolle Pass, Italy
Distance from station: ENE 46km
Dati ricevuti: 02/12/2022 13:55
DATI Obsoleti
Freezing Fog
Freezing Fog
 Vento da SE
Vento: SE 17 km/h
Temperatura: -2°C
Temperatura Vento: -7°C
P.to Rugiada: -4°C
Umidità: 86%
Barometro: 1012 hPa
Summary: Freezing Fog
Visibility: 0 km
2022/12/02 12:55 LIVR 021255Z 13009KT 0100 FZFG VV/// M02/M04 Q1012
 
LIPS - Istrana (it-Afb), Italy
Distance from station: SE 86km
Dati ricevuti: 03/12/2022 15:55
Pioviggine, Coperto
Pioviggine, Coperto
 Vento da Variabile
Vento: Variabile 0 km/h
Temperatura: 8°C
P.to Rugiada: 6°C
Umidità: 87%
Barometro: 1017 hPa
Summary: Pioviggine
Nuvole: Coperto
Visibility: 10 km
Cloud details: Coperto 914 m
2022/12/03 14:55 LIPS 031455Z /////KT 9999 -RA OVC030 08/06 Q1017
LIPX - Villafranca(Cv/M, Italy
Distance from station: SSO 88km
Dati ricevuti: 03/12/2022 16:20
Pioviggine, Coperto
Pioviggine, Coperto
 Vento da NO
Vento: NO 6 km/h
Temperatura: 9°C
P.to Rugiada: 7°C
Umidità: 87%
Barometro: 1015 hPa
Summary: Pioviggine
Nuvole: Coperto
Visibility: 10 km
Cloud details: Molto nuvoloso 945 m
Coperto 1311 m
2022/12/03 15:20 LIPX 031520Z AUTO 32003KT 280V020 9999 -RA BKN031/// OVC043/// 09/07 Q1015
 
LIPH - Treviso(Civ/It-A, Italy
Distance from station: SE 94km
Dati ricevuti: 03/12/2022 16:20
Molto nuvoloso
Molto nuvoloso
 Vento da ENE
Vento: ENE 17 km/h
Temperatura: 9°C
Temperatura Vento: 7°C
P.to Rugiada: 7°C
Umidità: 87%
Barometro: 1017 hPa
Nuvole: Molto nuvoloso
Visibility: 10 km
Cloud details: Molto nuvoloso 762 m
2022/12/03 15:20 LIPH 031520Z 06009KT 020V080 9999 BKN025 09/07 Q1017
LIVE - Resia Pass, Italy
Distance from station: NO 95km
Dati ricevuti: 03/12/2022 15:55
Molto nuvoloso
Molto nuvoloso
 Vento da SSO
Vento: SSO 13 km/h
Temperatura: 1°C
Temperatura Vento: -3°C
P.to Rugiada: -3°C
Umidità: 75%
Barometro: 1013 hPa
Nuvole: Molto nuvoloso
Visibility: 10 km
Cloud details: Parz. nuvoloso 366 m
Molto nuvoloso 610 m
2022/12/03 14:55 LIVE 031455Z 20007KT 9999 SCT012 BKN020 01/M03 Q1013
 
LIPU - Padova (civ/It-A, Italy
Distance from station: SSE 98km
Dati ricevuti: 03/12/2022 15:50
Molto nuvoloso
Molto nuvoloso
 Vento da NE
Vento: NE 11 km/h
Temperatura: 9°C
Temperatura Vento: 7°C
P.to Rugiada: 6°C
Umidità: 82%
Barometro: 1016 hPa
Nuvole: Molto nuvoloso
Visibility: 10 km
Cloud details: Molto nuvoloso 762 m
2022/12/03 14:50 LIPU 031450Z 04006KT 9999 BKN025 09/06 Q1016 REDZ